createdAt,value
2017-12-17T00:02:23.585Z,13.53
2017-12-17T00:04:50.019Z,14.00
2017-12-17T00:07:16.460Z,12.93
2017-12-17T00:09:42.907Z,15.27
2017-12-17T00:12:09.401Z,15.30
2017-12-17T00:14:36.570Z,15.93
2017-12-17T00:17:03.009Z,17.20
2017-12-17T00:19:29.433Z,16.70
2017-12-17T00:21:55.888Z,14.00
2017-12-17T00:24:22.323Z,14.27
2017-12-17T00:26:48.705Z,13.30
2017-12-17T00:29:15.134Z,13.00
2017-12-17T00:31:41.554Z,13.73
2017-12-17T00:34:08.010Z,14.27
2017-12-17T00:36:35.185Z,12.63
2017-12-17T00:39:01.613Z,12.63
2017-12-17T00:41:28.018Z,11.13
2017-12-17T00:43:55.189Z,11.83
2017-12-17T00:46:22.313Z,11.87
2017-12-17T00:48:48.744Z,12.60
2017-12-17T00:51:15.133Z,12.27
2017-12-17T00:53:41.546Z,11.10
2017-12-17T00:56:07.974Z,13.00
2017-12-17T00:58:34.381Z,11.93
2017-12-17T01:01:01.561Z,12.50
2017-12-17T01:03:28.011Z,12.23
2017-12-17T01:05:54.480Z,12.48
2017-12-17T01:08:20.880Z,12.68
2017-12-17T01:10:47.283Z,11.30
2017-12-17T01:13:13.724Z,11.60
2017-12-17T01:15:40.155Z,11.20
2017-12-17T01:18:06.597Z,11.60
2017-12-17T01:20:33.035Z,13.95
2017-12-17T01:22:59.475Z,11.93
2017-12-17T01:25:25.874Z,11.40
2017-12-17T01:27:52.293Z,11.95
2017-12-17T01:30:18.683Z,12.63
2017-12-17T01:32:45.083Z,12.05
2017-12-17T01:35:11.496Z,11.23
2017-12-17T01:37:38.667Z,12.63
2017-12-17T01:40:05.122Z,11.53
2017-12-17T01:42:31.562Z,12.03
2017-12-17T01:44:57.987Z,9.80
2017-12-17T01:47:24.419Z,9.70
2017-12-17T01:49:50.884Z,10.60
2017-12-17T01:52:17.311Z,10.17
2017-12-17T01:54:43.735Z,9.90
2017-12-17T01:57:10.134Z,9.20
2017-12-17T01:59:36.521Z,9.83
2017-12-17T02:02:02.912Z,9.03
2017-12-17T02:04:29.320Z,9.40
2017-12-17T02:06:55.753Z,8.90
2017-12-17T02:09:22.910Z,7.73
2017-12-17T02:11:49.343Z,9.10
2017-12-17T02:14:15.804Z,9.70
2017-12-17T02:16:42.311Z,8.30
2017-12-17T02:19:08.737Z,8.40
2017-12-17T02:21:35.220Z,8.90
2017-12-17T02:24:07.692Z,8.67
2017-12-17T02:26:34.130Z,9.40
2017-12-17T02:29:00.572Z,8.60
2017-12-17T02:31:26.990Z,8.93
2017-12-17T02:33:53.396Z,10.03
2017-12-17T02:36:19.859Z,9.40
2017-12-17T02:38:46.291Z,9.70
2017-12-17T02:41:12.763Z,10.27
2017-12-17T02:43:39.940Z,9.30
2017-12-17T02:46:06.360Z,10.87
2017-12-17T02:48:32.793Z,10.87
2017-12-17T02:50:59.233Z,10.50
2017-12-17T02:53:25.659Z,10.17
2017-12-17T02:55:52.083Z,10.50
2017-12-17T02:58:19.263Z,11.93
2017-12-17T03:00:45.679Z,10.97
2017-12-17T03:03:12.116Z,12.60
2017-12-17T03:05:38.568Z,11.63
2017-12-17T03:08:05.006Z,13.03
2017-12-17T03:10:31.433Z,12.77
2017-12-17T03:12:57.871Z,12.83
2017-12-17T03:15:24.335Z,12.60
2017-12-17T03:17:50.766Z,11.50
2017-12-17T03:20:17.172Z,10.70
2017-12-17T03:22:43.604Z,11.13
2017-12-17T03:25:10.208Z,11.73
2017-12-17T03:27:36.638Z,12.40
2017-12-17T03:30:03.819Z,10.97
2017-12-17T03:32:30.238Z,11.80
2017-12-17T03:34:56.814Z,12.00
2017-12-17T03:37:23.241Z,11.33
2017-12-17T03:39:49.660Z,11.67
2017-12-17T03:42:16.084Z,12.20
2017-12-17T03:44:42.522Z,12.10
2017-12-17T03:47:08.952Z,12.03
2017-12-17T03:49:35.384Z,12.03
2017-12-17T03:52:01.818Z,13.20
2017-12-17T03:54:28.325Z,11.87
2017-12-17T03:56:54.789Z,11.93
2017-12-17T03:59:21.226Z,13.00
2017-12-17T04:01:47.673Z,11.90
2017-12-17T04:04:14.118Z,12.73
2017-12-17T04:06:40.552Z,11.97
2017-12-17T04:09:08.483Z,12.17
2017-12-17T04:11:34.875Z,11.80
2017-12-17T04:14:02.030Z,12.97
2017-12-17T04:16:29.240Z,12.57
2017-12-17T04:18:55.680Z,13.07
2017-12-17T04:21:22.095Z,13.00
2017-12-17T04:23:48.500Z,12.33
2017-12-17T04:26:14.923Z,12.47
2017-12-17T04:28:41.355Z,12.20
2017-12-17T04:31:07.801Z,11.87
2017-12-17T04:33:34.242Z,11.43
2017-12-17T04:36:00.648Z,11.90
2017-12-17T04:38:27.059Z,13.13
2017-12-17T04:40:54.232Z,11.30
2017-12-17T04:43:21.489Z,12.90
2017-12-17T04:45:47.914Z,12.00
2017-12-17T04:48:14.378Z,12.10
2017-12-17T04:50:40.819Z,13.03
2017-12-17T04:53:07.258Z,12.27
2017-12-17T04:55:33.682Z,13.10
2017-12-17T04:58:00.094Z,12.17
2017-12-17T05:00:26.535Z,13.10
2017-12-17T05:02:52.957Z,12.60
2017-12-17T05:05:19.389Z,10.67
2017-12-17T05:07:45.837Z,12.07
2017-12-17T05:10:12.262Z,12.20
2017-12-17T05:12:38.684Z,11.80
2017-12-17T05:15:05.123Z,11.50
2017-12-17T05:17:31.581Z,10.53
2017-12-17T05:19:57.998Z,11.57
2017-12-17T05:22:24.400Z,12.27
2017-12-17T05:24:51.571Z,10.90
2017-12-17T05:27:17.990Z,10.87
2017-12-17T05:29:44.442Z,13.60
2017-12-17T05:32:10.875Z,10.97
2017-12-17T05:34:37.312Z,10.93
2017-12-17T05:37:03.721Z,11.10
2017-12-17T05:39:30.152Z,10.77
2017-12-17T05:41:56.575Z,10.33
2017-12-17T05:44:23.737Z,11.97
2017-12-17T05:46:50.131Z,10.10
2017-12-17T05:49:16.566Z,10.30
2017-12-17T05:51:43.036Z,10.73
2017-12-17T05:54:09.477Z,10.90
2017-12-17T05:56:36.147Z,12.00
2017-12-17T05:59:02.900Z,11.37
2017-12-17T06:01:29.337Z,13.00
2017-12-17T06:03:55.789Z,13.77
2017-12-17T06:06:22.950Z,12.10
2017-12-17T06:08:50.118Z,12.10
2017-12-17T06:11:16.562Z,11.83
2017-12-17T06:13:43.044Z,12.23
2017-12-17T06:16:10.976Z,11.67
2017-12-17T06:18:37.403Z,11.37
2017-12-17T06:21:03.884Z,13.63
2017-12-17T06:23:30.378Z,12.20
2017-12-17T06:25:56.851Z,12.60
2017-12-17T06:28:23.272Z,13.77
2017-12-17T06:30:49.692Z,13.63
2017-12-17T06:33:16.116Z,16.30
2017-12-17T06:35:42.551Z,13.53
2017-12-17T06:38:09.012Z,15.63
2017-12-17T06:40:36.199Z,14.60
2017-12-17T06:43:02.629Z,15.57
2017-12-17T06:45:29.132Z,13.50
2017-12-17T06:47:55.590Z,14.30
2017-12-17T06:50:22.764Z,14.93
2017-12-17T06:52:49.207Z,14.47
2017-12-17T06:55:15.684Z,17.20
2017-12-17T06:57:42.180Z,16.83
2017-12-17T07:00:08.677Z,16.10
2017-12-17T07:02:36.041Z,14.30
2017-12-17T07:05:02.450Z,15.60
2017-12-17T07:07:28.932Z,15.70
2017-12-17T07:09:55.343Z,16.13
2017-12-17T07:12:21.800Z,14.90
2017-12-17T07:14:48.239Z,15.13
2017-12-17T07:17:14.692Z,16.27
2017-12-17T07:19:41.141Z,15.37
2017-12-17T07:22:07.582Z,15.37
2017-12-17T07:24:34.778Z,14.87
2017-12-17T07:27:01.208Z,14.60
2017-12-17T07:29:27.614Z,14.70
2017-12-17T07:31:54.818Z,13.70
2017-12-17T07:34:21.259Z,13.50
2017-12-17T07:36:47.733Z,13.97
2017-12-17T07:39:14.890Z,13.50
2017-12-17T07:41:41.334Z,27.40
2017-12-17T07:44:07.790Z,16.33
2017-12-17T07:46:34.231Z,15.97
2017-12-17T07:49:00.700Z,14.47
2017-12-17T07:51:27.882Z,14.50
2017-12-17T07:53:54.335Z,15.40
2017-12-17T07:56:20.795Z,16.03
2017-12-17T07:58:47.242Z,16.97
2017-12-17T08:01:13.690Z,16.23
2017-12-17T08:03:40.876Z,15.07
2017-12-17T08:06:07.287Z,16.80
2017-12-17T08:08:33.759Z,16.77
2017-12-17T08:11:00.252Z,17.33
2017-12-17T08:13:26.669Z,16.93
2017-12-17T08:15:53.902Z,14.87
2017-12-17T08:18:20.354Z,16.30
2017-12-17T08:20:46.810Z,15.57
2017-12-17T08:23:13.240Z,17.53
2017-12-17T08:25:39.745Z,15.97
2017-12-17T08:28:06.919Z,19.07
2017-12-17T08:30:33.392Z,19.00
2017-12-17T08:32:59.895Z,19.80
2017-12-17T08:35:26.355Z,20.20
2017-12-17T08:37:52.860Z,21.40
2017-12-17T08:40:19.315Z,16.73
2017-12-17T08:42:45.755Z,19.03
2017-12-17T08:45:12.188Z,18.10
2017-12-17T08:47:38.591Z,18.30
2017-12-17T08:50:05.071Z,20.00
2017-12-17T08:52:31.528Z,16.80
2017-12-17T08:54:58.718Z,16.70
2017-12-17T08:57:25.196Z,16.17
2017-12-17T08:59:51.619Z,14.10
2017-12-17T09:02:18.052Z,14.03
2017-12-17T09:04:44.470Z,14.47
2017-12-17T09:07:10.921Z,12.97
2017-12-17T09:09:37.368Z,13.90
2017-12-17T09:12:03.903Z,12.77
2017-12-17T09:14:30.372Z,33.10
2017-12-17T09:16:56.787Z,13.57
2017-12-17T09:19:23.982Z,11.43
2017-12-17T09:21:50.415Z,10.60
2017-12-17T09:24:16.844Z,10.20
2017-12-17T09:26:43.326Z,10.80
2017-12-17T09:29:11.219Z,9.80
2017-12-17T09:31:37.712Z,8.60
2017-12-17T09:34:04.230Z,9.67
2017-12-17T09:36:30.634Z,9.57
2017-12-17T09:38:57.058Z,10.30
2017-12-17T09:41:23.503Z,8.80
2017-12-17T09:43:50.017Z,9.23
2017-12-17T09:46:17.175Z,8.90
2017-12-17T09:48:43.618Z,10.87
2017-12-17T09:51:10.076Z,10.10
2017-12-17T09:53:36.484Z,10.33
2017-12-17T09:56:02.962Z,9.50
2017-12-17T09:58:30.150Z,12.70
2017-12-17T10:00:56.595Z,10.13
2017-12-17T10:03:23.031Z,12.00
2017-12-17T10:05:49.488Z,11.20
2017-12-17T10:08:15.915Z,11.10
2017-12-17T10:10:42.334Z,12.63
2017-12-17T10:13:08.883Z,12.50
2017-12-17T10:15:35.305Z,12.67
2017-12-17T10:18:01.756Z,11.57
2017-12-17T10:20:28.208Z,12.70
2017-12-17T10:22:54.626Z,11.33
2017-12-17T10:25:21.133Z,11.40
2017-12-17T10:27:47.657Z,10.43
2017-12-17T10:30:14.164Z,10.63
2017-12-17T10:32:41.384Z,10.87
2017-12-17T10:35:07.844Z,8.53
2017-12-17T10:37:35.225Z,8.57
2017-12-17T10:40:01.759Z,8.20
2017-12-17T10:42:28.292Z,10.07
2017-12-17T10:44:54.792Z,8.57
2017-12-17T10:47:22.051Z,8.50
2017-12-17T10:49:48.571Z,8.77
2017-12-17T10:52:15.785Z,7.77
2017-12-17T10:54:42.243Z,9.23
2017-12-17T10:57:08.726Z,8.50
2017-12-17T10:59:35.220Z,8.10
2017-12-17T11:02:01.722Z,8.60
2017-12-17T11:04:28.246Z,6.67
2017-12-17T11:06:54.751Z,7.00
2017-12-17T11:09:22.066Z,7.17
2017-12-17T11:11:48.606Z,7.10
2017-12-17T11:14:15.143Z,9.73
2017-12-17T11:16:42.169Z,8.40
2017-12-17T11:19:08.704Z,6.40
2017-12-17T11:21:35.197Z,6.63
2017-12-17T11:24:02.398Z,7.57
2017-12-17T11:26:28.889Z,6.23
2017-12-17T11:28:55.365Z,7.00
2017-12-17T11:31:21.816Z,6.87
2017-12-17T11:33:48.303Z,6.77
2017-12-17T11:36:14.711Z,6.63
2017-12-17T11:38:41.925Z,6.90
2017-12-17T11:41:08.354Z,6.57
2017-12-17T11:43:34.763Z,6.60
2017-12-17T11:46:01.211Z,6.77
2017-12-17T11:48:27.662Z,5.90
2017-12-17T11:50:54.080Z,5.53
2017-12-17T11:53:20.541Z,6.20
2017-12-17T11:55:46.978Z,6.60
2017-12-17T11:58:13.434Z,5.50
2017-12-17T12:00:40.591Z,6.80
2017-12-17T12:03:07.895Z,5.50
2017-12-17T12:05:34.333Z,24.53
2017-12-17T12:08:00.746Z,6.60
2017-12-17T12:10:27.184Z,7.30
2017-12-17T12:12:53.638Z,6.00
2017-12-17T12:15:20.047Z,6.27
2017-12-17T12:17:46.487Z,6.10
2017-12-17T12:20:12.973Z,5.93
2017-12-17T12:22:40.135Z,5.67
2017-12-17T12:25:06.582Z,6.20
2017-12-17T12:27:33.980Z,6.73
2017-12-17T12:30:00.438Z,5.93
2017-12-17T12:32:27.638Z,5.07
2017-12-17T12:34:54.096Z,6.17
2017-12-17T12:37:20.600Z,5.27
2017-12-17T12:39:47.092Z,7.47
2017-12-17T12:42:14.264Z,6.50
2017-12-17T12:44:40.739Z,6.20
2017-12-17T12:47:07.381Z,6.60
2017-12-17T12:49:33.803Z,7.03
2017-12-17T12:52:00.248Z,5.93
2017-12-17T12:54:26.662Z,6.33
2017-12-17T12:56:53.114Z,6.97
2017-12-17T12:59:19.551Z,6.80
2017-12-17T13:01:45.995Z,8.30
2017-12-17T13:04:13.338Z,8.43
2017-12-17T13:06:39.756Z,9.07
2017-12-17T13:09:06.170Z,10.30
2017-12-17T13:11:32.593Z,7.03
2017-12-17T13:13:59.016Z,6.93
2017-12-17T13:16:26.164Z,9.63
2017-12-17T13:18:52.654Z,6.20
2017-12-17T13:21:19.085Z,6.47
2017-12-17T13:23:45.514Z,6.80
2017-12-17T13:26:11.940Z,5.93
2017-12-17T13:28:38.364Z,5.57
2017-12-17T13:31:04.854Z,6.67
2017-12-17T13:33:32.062Z,5.40
2017-12-17T13:35:58.497Z,5.87
2017-12-17T13:38:24.959Z,6.47
2017-12-17T13:40:51.455Z,5.93
2017-12-17T13:43:17.930Z,5.17
2017-12-17T13:45:44.381Z,5.53
2017-12-17T13:48:10.856Z,5.87
2017-12-17T13:50:37.296Z,5.40
2017-12-17T13:53:03.738Z,6.47
2017-12-17T13:55:30.147Z,5.90
2017-12-17T13:57:56.587Z,6.30
2017-12-17T14:00:23.011Z,6.03
2017-12-17T14:02:49.421Z,7.10
2017-12-17T14:05:15.860Z,6.90
2017-12-17T14:07:45.406Z,6.70
2017-12-17T14:10:12.124Z,6.20
2017-12-17T14:12:38.567Z,7.63
2017-12-17T14:15:04.987Z,7.17
2017-12-17T14:17:31.405Z,6.50
2017-12-17T14:19:58.033Z,6.80
2017-12-17T14:22:24.502Z,6.20
2017-12-17T14:24:50.999Z,7.33
2017-12-17T14:27:17.469Z,5.93
2017-12-17T14:29:43.891Z,6.97
2017-12-17T14:32:10.312Z,7.30
2017-12-17T14:34:36.754Z,6.33
2017-12-17T14:37:03.259Z,9.17
2017-12-17T14:39:29.708Z,7.83
2017-12-17T14:41:56.165Z,8.50
2017-12-17T14:44:24.192Z,7.93
2017-12-17T14:46:51.354Z,8.17
2017-12-17T14:49:17.815Z,8.30
2017-12-17T14:51:44.320Z,7.50
2017-12-17T14:54:10.786Z,7.90
2017-12-17T14:56:38.004Z,7.93
2017-12-17T14:59:04.434Z,7.63
2017-12-17T15:01:30.925Z,8.37
2017-12-17T15:03:57.367Z,9.10
2017-12-17T15:06:23.811Z,7.67
2017-12-17T15:08:50.968Z,9.97
2017-12-17T15:11:18.159Z,8.80
2017-12-17T15:13:44.594Z,7.97
2017-12-17T15:16:11.008Z,7.70
2017-12-17T15:18:37.490Z,7.50
2017-12-17T15:21:03.991Z,9.50
2017-12-17T15:23:30.457Z,6.93
2017-12-17T15:25:56.875Z,7.00
2017-12-17T15:28:23.370Z,8.67
2017-12-17T15:30:50.542Z,13.70
2017-12-17T15:33:16.979Z,15.33
2017-12-17T15:35:43.408Z,14.23
2017-12-17T15:38:09.942Z,9.50
2017-12-17T15:40:36.383Z,7.53
2017-12-17T15:43:02.874Z,7.23
2017-12-17T15:45:29.357Z,7.50
2017-12-17T15:47:55.783Z,7.27
2017-12-17T15:50:22.202Z,7.00
2017-12-17T15:52:53.706Z,7.40
2017-12-17T15:55:20.136Z,7.00
2017-12-17T15:57:48.735Z,8.00
2017-12-17T16:00:15.906Z,8.07
2017-12-17T16:02:42.332Z,8.47
2017-12-17T16:05:09.339Z,7.87
2017-12-17T16:07:35.770Z,8.03
2017-12-17T16:10:02.197Z,7.50
2017-12-17T16:12:28.649Z,7.47
2017-12-17T16:14:55.103Z,7.60
2017-12-17T16:17:22.291Z,7.90
2017-12-17T16:19:48.770Z,12.10
2017-12-17T16:22:15.218Z,13.00
2017-12-17T16:24:42.426Z,13.60
2017-12-17T16:27:08.840Z,17.20
2017-12-17T16:29:35.603Z,11.83
2017-12-17T16:32:02.055Z,10.70
2017-12-17T16:34:29.221Z,10.97
2017-12-17T16:36:56.364Z,9.50
2017-12-17T16:39:23.616Z,12.37
2017-12-17T16:41:50.827Z,10.70
2017-12-17T16:44:17.219Z,9.20
2017-12-17T16:46:45.154Z,9.70
2017-12-17T16:49:11.562Z,8.30
2017-12-17T16:51:38.069Z,7.97
2017-12-17T16:54:04.759Z,6.53
2017-12-17T16:56:31.133Z,8.17
2017-12-17T16:58:57.503Z,11.50
2017-12-17T17:01:23.907Z,10.70
2017-12-17T17:03:50.395Z,10.13
2017-12-17T17:06:16.821Z,10.37
2017-12-17T17:08:43.219Z,8.67
2017-12-17T17:11:09.666Z,7.57
2017-12-17T17:13:36.059Z,11.90
2017-12-17T17:16:02.736Z,8.47
2017-12-17T17:18:29.154Z,8.37
2017-12-17T17:20:55.586Z,10.70
2017-12-17T17:23:22.024Z,7.83
2017-12-17T17:25:48.445Z,6.40
2017-12-17T17:28:14.862Z,5.90
2017-12-17T17:30:41.255Z,8.60
2017-12-17T17:33:08.480Z,7.67
2017-12-17T17:35:35.621Z,5.70
2017-12-17T17:38:02.023Z,6.80
2017-12-17T17:40:28.459Z,7.70
2017-12-17T17:42:54.899Z,5.87
2017-12-17T17:45:21.330Z,6.50
2017-12-17T17:47:47.767Z,6.40
2017-12-17T17:50:14.163Z,6.10
2017-12-17T17:52:40.584Z,5.77
2017-12-17T17:55:07.086Z,7.20
2017-12-17T17:57:33.494Z,6.70
2017-12-17T17:59:59.902Z,6.57
2017-12-17T18:02:27.104Z,6.13
2017-12-17T18:04:53.514Z,5.50
2017-12-17T18:07:20.341Z,6.70
2017-12-17T18:09:47.233Z,7.37
2017-12-17T18:12:13.654Z,6.37
2017-12-17T18:14:40.080Z,5.77
2017-12-17T18:17:06.515Z,6.37
2017-12-17T18:19:32.907Z,5.33
2017-12-17T18:22:00.030Z,6.60
2017-12-17T18:24:26.429Z,6.40
2017-12-17T18:26:52.835Z,7.07
2017-12-17T18:29:19.265Z,4.90
2017-12-17T18:31:45.643Z,5.53
2017-12-17T18:34:12.060Z,5.27
2017-12-17T18:36:38.494Z,5.23
2017-12-17T18:39:05.015Z,6.03
2017-12-17T18:41:32.215Z,6.00
2017-12-17T18:43:59.340Z,5.30
2017-12-17T18:46:25.724Z,6.17
2017-12-17T18:48:52.116Z,6.03
2017-12-17T18:51:18.524Z,5.53
2017-12-17T18:53:44.896Z,3.70
2017-12-17T18:56:11.326Z,2.83
2017-12-17T18:58:37.788Z,2.10
2017-12-17T19:01:04.280Z,2.13
2017-12-17T19:03:30.700Z,2.07
2017-12-17T19:05:57.135Z,1.80
2017-12-17T19:08:23.547Z,1.83
2017-12-17T19:10:49.938Z,2.00
2017-12-17T19:13:16.352Z,1.90
2017-12-17T19:15:42.896Z,1.70
2017-12-17T19:18:10.042Z,1.40
2017-12-17T19:20:36.447Z,2.53
2017-12-17T19:23:02.881Z,1.83
2017-12-17T19:25:29.354Z,1.60
2017-12-17T19:27:56.517Z,1.93
2017-12-17T19:30:22.944Z,1.70
2017-12-17T19:32:50.103Z,1.97
2017-12-17T19:35:17.487Z,1.77
2017-12-17T19:37:44.637Z,2.23
2017-12-17T19:40:12.051Z,2.50
2017-12-17T19:42:38.490Z,2.20
2017-12-17T19:45:04.928Z,3.37
2017-12-17T19:47:31.324Z,3.30
2017-12-17T19:49:57.708Z,2.83
2017-12-17T19:52:24.101Z,4.23
2017-12-17T19:54:51.270Z,3.70
2017-12-17T19:57:17.634Z,3.40
2017-12-17T19:59:44.149Z,3.87
2017-12-17T20:02:10.547Z,4.33
2017-12-17T20:04:37.682Z,4.73
2017-12-17T20:07:04.107Z,4.10
2017-12-17T20:09:30.539Z,4.33
2017-12-17T20:11:56.943Z,3.70
2017-12-17T20:14:23.347Z,4.00
2017-12-17T20:16:49.755Z,4.20
2017-12-17T20:19:16.918Z,3.67
2017-12-17T20:21:44.087Z,3.80
2017-12-17T20:24:10.521Z,3.70
2017-12-17T20:26:36.966Z,3.80
2017-12-17T20:29:03.431Z,3.37
2017-12-17T20:31:29.881Z,3.70
2017-12-17T20:33:57.040Z,3.70
2017-12-17T20:36:24.189Z,3.87
2017-12-17T20:38:51.312Z,3.70
2017-12-17T20:41:17.772Z,3.83
2017-12-17T20:43:44.919Z,3.60
2017-12-17T20:46:12.101Z,3.20
2017-12-17T20:48:38.499Z,3.08
2017-12-17T20:51:05.687Z,3.07
2017-12-17T20:53:32.098Z,3.63
2017-12-17T20:55:58.530Z,3.75
2017-12-17T20:58:25.654Z,3.47
2017-12-17T21:00:52.134Z,3.45
2017-12-17T21:03:18.568Z,4.72
2017-12-17T21:05:44.967Z,3.60
2017-12-17T21:08:12.098Z,3.40
2017-12-17T21:10:38.755Z,4.47
2017-12-17T21:13:05.139Z,5.70
2017-12-17T21:15:31.545Z,4.97
2017-12-17T21:17:57.993Z,7.37
2017-12-17T21:20:24.452Z,7.00
2017-12-17T21:22:50.856Z,6.12
2017-12-17T21:25:17.248Z,4.77
2017-12-17T21:27:44.383Z,4.20
2017-12-17T21:30:11.539Z,4.18
2017-12-17T21:32:38.731Z,4.43
2017-12-17T21:35:05.218Z,3.75
2017-12-17T21:37:32.380Z,3.50
2017-12-17T21:39:59.513Z,4.00
2017-12-17T21:42:25.925Z,4.20
2017-12-17T21:44:52.370Z,3.62
2017-12-17T21:47:18.791Z,3.62
2017-12-17T21:49:45.204Z,4.27
2017-12-17T21:52:11.615Z,5.43
2017-12-17T21:54:38.091Z,4.07
2017-12-17T21:57:04.528Z,4.87
2017-12-17T21:59:30.920Z,4.22
2017-12-17T22:01:57.323Z,5.20
2017-12-17T22:04:24.437Z,4.37
2017-12-17T22:06:50.870Z,4.80
2017-12-17T22:09:18.744Z,4.60
2017-12-17T22:11:45.144Z,4.12
2017-12-17T22:14:11.526Z,4.30
2017-12-17T22:16:37.911Z,3.80
2017-12-17T22:19:04.285Z,3.63
2017-12-17T22:21:30.671Z,3.70
2017-12-17T22:23:58.570Z,4.50
2017-12-17T22:26:24.999Z,4.47
2017-12-17T22:28:51.377Z,4.33
2017-12-17T22:31:17.766Z,4.90
2017-12-17T22:33:44.201Z,4.10
2017-12-17T22:36:10.599Z,5.03
2017-12-17T22:38:36.983Z,4.15
2017-12-17T22:41:04.151Z,5.00
2017-12-17T22:43:30.556Z,5.12
2017-12-17T22:45:57.705Z,5.40
2017-12-17T22:48:25.599Z,4.80
2017-12-17T22:50:52.724Z,5.33
2017-12-17T22:53:19.191Z,5.33
2017-12-17T22:55:45.591Z,6.10
2017-12-17T22:58:12.752Z,5.97
2017-12-17T23:00:39.933Z,6.65
2017-12-17T23:03:06.358Z,6.27
2017-12-17T23:05:32.751Z,5.97
2017-12-17T23:07:59.154Z,6.57
2017-12-17T23:10:25.616Z,6.43
2017-12-17T23:12:52.211Z,6.83
2017-12-17T23:15:18.655Z,7.10
2017-12-17T23:17:45.054Z,6.97
2017-12-17T23:20:11.486Z,5.70
2017-12-17T23:22:37.880Z,6.60
2017-12-17T23:25:04.290Z,6.47
2017-12-17T23:27:30.694Z,6.17
2017-12-17T23:29:57.130Z,6.60
2017-12-17T23:32:23.564Z,6.67
2017-12-17T23:34:49.974Z,6.43
2017-12-17T23:37:17.101Z,6.70
2017-12-17T23:39:43.515Z,7.00
2017-12-17T23:42:09.939Z,7.07
2017-12-17T23:44:36.346Z,6.97
2017-12-17T23:47:02.765Z,7.77
2017-12-17T23:49:29.204Z,6.90
2017-12-17T23:51:55.632Z,6.75
2017-12-17T23:54:22.102Z,7.73
2017-12-17T23:56:48.491Z,7.27
2017-12-17T23:59:14.898Z,5.97
